Time;durP1;ratioP1;P1;durP2;ratioP2;P2;SDS_P1;SDS_P2;PMS_P1;PMS_P2;Temp;Humidity;BMP_temperature;BMP_pressure;BME280_temperature;BME280_humidity;BME280_pressure;Samples;Min_cycle;Max_cycle;Signal;HPM_P1;HPM_P2
2023/03/06 00:00:51;;;;;;;18.60;17.20;;;6.40;24.90;;;;;;4948272;28;20422;-56
2023/03/06 00:03:17;;;;;;;18.00;16.80;;;6.20;25.00;;;;;;4949978;29;20512;-54
2023/03/06 00:05:43;;;;;;;19.40;17.90;;;6.10;25.50;;;;;;4966267;28;20902;-55
2023/03/06 00:08:08;;;;;;;18.87;17.40;;;6.00;25.80;;;;;;4950108;29;20564;-51
2023/03/06 00:10:34;;;;;;;18.77;17.27;;;6.00;25.90;;;;;;4950581;28;20423;-56
2023/03/06 00:13:04;;;;;;;19.60;18.00;;;6.00;25.90;;;;;;4949585;29;20540;-55
2023/03/06 00:15:29;;;;;;;20.60;18.70;;;6.00;26.20;;;;;;4965858;28;20427;-52
2023/03/06 00:17:56;;;;;;;21.40;19.80;;;5.90;26.20;;;;;;4950178;29;20430;-56
2023/03/06 00:20:22;;;;;;;20.03;18.47;;;5.90;26.40;;;;;;4950172;28;20214;-52
2023/03/06 00:22:48;;;;;;;21.63;19.83;;;5.90;26.30;;;;;;4949469;28;20422;-53
2023/03/06 00:25:19;;;;;;;19.83;18.20;;;5.90;26.30;;;;;;4948839;29;20450;-54
2023/03/06 00:27:45;;;;;;;21.60;19.70;;;6.00;25.90;;;;;;4949485;29;20856;-55
2023/03/06 00:30:14;;;;;;;20.57;18.90;;;5.90;25.90;;;;;;4956172;28;20485;-56
2023/03/06 00:32:39;;;;;;;22.03;20.20;;;5.90;26.20;;;;;;4949824;29;20187;-55
2023/03/06 00:35:05;;;;;;;19.73;18.00;;;6.10;25.70;;;;;;4949512;29;20416;-54
2023/03/06 00:37:31;;;;;;;20.83;19.13;;;6.20;25.10;;;;;;4950944;28;20456;-55
2023/03/06 00:39:57;;;;;;;21.30;19.67;;;6.10;25.50;;;;;;4950101;28;20423;-59
2023/03/06 00:42:22;;;;;;;22.60;20.30;;;6.20;25.50;;;;;;4949986;28;20201;-52
2023/03/06 00:44:48;;;;;;;20.57;18.97;;;6.30;25.00;;;;;;4949254;28;20230;-55
2023/03/06 00:47:17;;;;;;;20.97;19.33;;;6.30;25.10;;;;;;4949206;29;20203;-57
2023/03/06 00:49:43;;;;;;;20.10;18.60;;;6.30;24.70;;;;;;4965672;28;20581;-56
2023/03/06 00:52:09;;;;;;;19.90;18.30;;;6.40;24.30;;;;;;4950831;29;20840;-56
2023/03/06 00:54:35;;;;;;;19.30;17.77;;;6.50;24.10;;;;;;4965965;28;20446;-56
2023/03/06 00:57:00;;;;;;;20.30;18.70;;;6.40;24.20;;;;;;4949664;29;20596;-56
2023/03/06 00:59:29;;;;;;;18.70;17.20;;;6.60;24.20;;;;;;4948606;28;20214;-55
2023/03/06 01:01:55;;;;;;;20.00;18.40;;;6.80;23.50;;;;;;4948671;28;20202;-56
2023/03/06 01:04:20;;;;;;;19.80;18.37;;;7.00;23.20;;;;;;4949173;29;20498;-56
2023/03/06 01:06:46;;;;;;;18.60;17.13;;;7.10;23.00;;;;;;4949116;28;20458;-56
2023/03/06 01:09:12;;;;;;;19.20;17.80;;;7.30;22.60;;;;;;4949030;28;20206;-56
2023/03/06 01:11:38;;;;;;;19.20;17.70;;;7.30;22.80;;;;;;4948504;28;20644;-55
2023/03/06 01:14:04;;;;;;;18.63;17.03;;;7.40;22.40;;;;;;4949812;28;20795;-54
2023/03/06 01:16:29;;;;;;;18.73;17.33;;;7.40;22.30;;;;;;4949364;29;20422;-57
2023/03/06 01:18:55;;;;;;;18.43;17.03;;;7.60;22.20;;;;;;4949377;29;20419;-57
2023/03/06 01:21:21;;;;;;;17.53;16.23;;;7.60;21.60;;;;;;4948904;29;20190;-54
2023/03/06 01:23:47;;;;;;;17.90;16.60;;;7.70;21.30;;;;;;4948755;29;20466;-54
2023/03/06 01:26:12;;;;;;;18.60;16.90;;;7.70;21.20;;;;;;4948217;28;20184;-57
2023/03/06 01:28:39;;;;;;;18.10;16.50;;;7.40;21.90;;;;;;4948977;28;20350;-57
2023/03/06 01:31:06;;;;;;;19.60;17.90;;;7.10;22.40;;;;;;4948580;29;20265;-54
2023/03/06 01:33:32;;;;;;;18.60;17.20;;;7.00;22.00;;;;;;4945669;29;20415;-55
2023/03/06 01:35:58;;;;;;;18.43;17.03;;;7.00;22.00;;;;;;4949011;29;20419;-55
2023/03/06 01:38:24;;;;;;;17.40;16.17;;;7.00;22.10;;;;;;4949174;29;20467;-54
2023/03/06 01:40:50;;;;;;;19.53;18.03;;;7.10;23.00;;;;;;4949407;28;20501;-51
2023/03/06 01:43:28;;;;;;;17.73;16.43;;;7.30;22.30;;;;;;4949107;28;20919;-56
2023/03/06 01:46:21;;;;;;;18.43;17.03;;;7.40;22.00;;;;;;4949123;29;20651;-55
2023/03/06 01:48:48;;;;;;;17.07;15.73;;;7.60;21.80;;;;;;4949437;29;20446;-42
2023/03/06 01:51:15;;;;;;;19.37;17.87;;;7.60;21.60;;;;;;4949159;28;20414;-42
2023/03/06 01:53:44;;;;;;;17.93;16.17;;;7.70;21.20;;;;;;4950196;28;20435;-42
2023/03/06 01:56:12;;;;;;;17.07;15.80;;;7.70;21.00;;;;;;4948957;29;20475;-42
2023/03/06 01:58:38;;;;;;;16.63;15.43;;;7.80;20.90;;;;;;4949383;29;20427;-42
2023/03/06 02:01:04;;;;;;;16.37;15.13;;;7.80;20.70;;;;;;4948786;28;20438;-43
2023/03/06 02:03:31;;;;;;;17.10;15.90;;;7.60;20.70;;;;;;4949025;28;20493;-41
2023/03/06 02:05:58;;;;;;;16.50;15.30;;;7.50;21.10;;;;;;4948840;29;20561;-45
2023/03/06 02:08:25;;;;;;;18.97;17.40;;;7.50;21.50;;;;;;4948303;29;20447;-41
2023/03/06 02:11:11;;;;;;;16.97;15.67;;;7.40;21.50;;;;;;4950156;28;20414;-41
2023/03/06 02:13:38;;;;;;;16.37;15.07;;;7.50;21.50;;;;;;4939069;29;20467;-42
2023/03/06 02:16:04;;;;;;;18.30;16.80;;;7.50;21.20;;;;;;4963855;28;20470;-42
2023/03/06 02:18:29;;;;;;;16.73;15.30;;;7.40;20.80;;;;;;4948358;29;20415;-46
2023/03/06 02:21:09;;;;;;;23.37;17.60;;;7.00;22.00;;;;;;4948465;28;20419;-46
2023/03/06 02:23:49;;;;;;;19.30;17.37;;;6.80;21.90;;;;;;4944977;29;20214;-43
2023/03/06 02:26:15;;;;;;;18.00;16.50;;;6.40;23.40;;;;;;4948388;29;20411;-46
2023/03/06 02:28:41;;;;;;;15.97;14.67;;;6.30;23.40;;;;;;4964201;28;20422;-56
2023/03/06 02:31:17;;;;;;;17.57;16.27;;;6.30;23.60;;;;;;4948138;29;20430;-55
2023/03/06 02:33:43;;;;;;;17.37;16.00;;;6.20;23.50;;;;;;4961998;28;20513;-55
2023/03/06 02:36:11;;;;;;;17.97;16.67;;;6.00;23.80;;;;;;4947345;28;20478;-54
2023/03/06 02:38:47;;;;;;;17.27;15.97;;;5.80;24.60;;;;;;4964610;28;20215;-54
2023/03/06 02:41:12;;;;;;;18.07;16.63;;;5.80;24.50;;;;;;4947838;29;20590;-54
2023/03/06 02:43:40;;;;;;;17.60;16.20;;;6.00;24.50;;;;;;4947686;29;20553;-54
2023/03/06 02:46:06;;;;;;;17.13;15.77;;;6.10;23.30;;;;;;4944921;29;20176;-56
2023/03/06 02:48:32;;;;;;;17.37;16.10;;;6.10;23.80;;;;;;4947918;28;20423;-56
2023/03/06 02:50:57;;;;;;;17.73;16.33;;;6.20;23.60;;;;;;4948868;29;20423;-56
2023/03/06 02:53:23;;;;;;;17.57;16.37;;;6.20;23.60;;;;;;4950505;28;20187;-55
2023/03/06 02:55:49;;;;;;;17.40;16.10;;;6.20;24.00;;;;;;4951475;29;20574;-56
2023/03/06 02:58:18;;;;;;;17.73;16.43;;;6.20;23.60;;;;;;4951690;28;20320;-55
2023/03/06 03:00:44;;;;;;;17.10;15.90;;;6.20;23.80;;;;;;4951269;29;20451;-55
2023/03/06 03:03:10;;;;;;;19.87;18.23;;;6.20;23.30;;;;;;4950801;28;20513;-55
2023/03/06 03:05:35;;;;;;;20.87;19.33;;;6.10;23.70;;;;;;4951633;29;20422;-47
2023/03/06 03:08:01;;;;;;;20.77;19.07;;;6.20;23.80;;;;;;4967756;28;20191;-47
2023/03/06 03:10:27;;;;;;;21.10;19.50;;;6.50;23.30;;;;;;4951320;28;20190;-42
2023/03/06 03:12:52;;;;;;;27.87;25.67;;;6.70;23.10;;;;;;4963243;28;20175;-42
2023/03/06 03:15:18;;;;;;;28.33;26.17;;;6.80;22.20;;;;;;4951635;29;20187;-42
2023/03/06 03:17:44;;;;;;;24.00;22.10;;;6.70;22.50;;;;;;4960496;28;20211;-46
2023/03/06 03:20:12;;;;;;;19.27;17.63;;;6.80;22.60;;;;;;4951012;29;20242;-47
2023/03/06 03:22:38;;;;;;;18.90;17.50;;;7.00;22.00;;;;;;4951104;29;20183;-55
2023/03/06 03:25:05;;;;;;;18.53;17.13;;;7.20;22.20;;;;;;4951055;29;21017;-56
2023/03/06 03:27:31;;;;;;;50.03;45.63;;;7.20;21.30;;;;;;4951611;29;20415;-57
2023/03/06 03:29:57;;;;;;;48.33;44.27;;;6.80;21.90;;;;;;4951693;29;20792;-52
2023/03/06 03:32:23;;;;;;;109.60;99.77;;;6.50;22.50;;;;;;4953438;28;20548;-54
2023/03/06 03:34:49;;;;;;;141.77;128.83;;;6.20;23.20;;;;;;4952274;28;20915;-54
2023/03/06 03:37:14;;;;;;;106.90;97.70;;;6.10;23.70;;;;;;4951226;29;20415;-52
2023/03/06 03:39:40;;;;;;;37.57;34.37;;;6.20;23.90;;;;;;4952186;28;20180;-53
2023/03/06 03:42:06;;;;;;;51.07;46.33;;;6.50;22.90;;;;;;4951077;29;20660;-54
2023/03/06 03:44:32;;;;;;;47.17;43.10;;;6.50;22.60;;;;;;4967022;28;20490;-53
2023/03/06 03:46:57;;;;;;;40.63;37.10;;;6.40;22.40;;;;;;4949321;29;20176;-55
2023/03/06 03:49:23;;;;;;;38.07;34.87;;;6.30;23.20;;;;;;4948804;29;20179;-52
2023/03/06 03:51:49;;;;;;;76.97;69.47;;;6.00;23.60;;;;;;4949988;29;20433;-45
2023/03/06 03:54:15;;;;;;;323.07;295.70;;;5.80;24.10;;;;;;4949983;29;20270;-48
2023/03/06 03:56:41;;;;;;;246.83;225.40;;;5.80;24.40;;;;;;4951453;29;20510;-44
2023/03/06 03:59:07;;;;;;;137.90;125.27;;;5.70;24.80;;;;;;4951005;29;20176;-45
2023/03/06 04:01:33;;;;;;;50.77;46.23;;;5.50;25.10;;;;;;4951250;29;20514;-47
2023/03/06 04:03:58;;;;;;;37.43;34.17;;;5.40;25.20;;;;;;4950811;28;20601;-45
2023/03/06 04:06:24;;;;;;;35.37;32.37;;;5.30;25.50;;;;;;4951314;29;20183;-42
2023/03/06 04:08:50;;;;;;;100.20;91.30;;;5.30;25.50;;;;;;4951364;29;20195;-42
2023/03/06 04:11:16;;;;;;;82.00;74.47;;;5.40;25.30;;;;;;4950577;28;20542;-47
2023/03/06 04:13:41;;;;;;;71.87;65.50;;;5.60;25.20;;;;;;4951132;29;20191;-46
2023/03/06 04:16:07;;;;;;;45.17;41.47;;;5.70;24.90;;;;;;4951414;29;20932;-44
2023/03/06 04:18:33;;;;;;;87.50;79.67;;;5.70;25.20;;;;;;4950264;29;20557;-47
2023/03/06 04:20:58;;;;;;;118.53;107.73;;;5.60;24.90;;;;;;4950831;29;20191;-48
2023/03/06 04:23:26;;;;;;;128.67;117.13;;;5.60;25.10;;;;;;4951011;29;20215;-45
2023/03/06 04:25:52;;;;;;;83.63;76.03;;;5.50;25.10;;;;;;4950442;29;20181;-44
2023/03/06 04:28:18;;;;;;;72.87;66.17;;;5.50;25.50;;;;;;4949991;29;20810;-43
2023/03/06 04:30:43;;;;;;;128.33;116.63;;;5.40;25.40;;;;;;4950849;29;20238;-44
2023/03/06 04:33:09;;;;;;;134.03;121.07;;;5.40;25.60;;;;;;4951217;29;20616;-43
2023/03/06 04:35:35;;;;;;;136.43;123.03;;;5.40;25.70;;;;;;4950960;29;20544;-43
2023/03/06 04:38:01;;;;;;;117.67;105.87;;;5.40;25.90;;;;;;4949881;29;20176;-43
2023/03/06 04:40:29;;;;;;;65.23;59.13;;;5.30;25.90;;;;;;4950735;29;20681;-45
2023/03/06 04:42:56;;;;;;;32.17;29.30;;;5.30;25.90;;;;;;4949424;29;20419;-46
2023/03/06 04:45:22;;;;;;;18.43;16.90;;;5.40;25.60;;;;;;4951146;28;20974;-43
2023/03/06 04:47:48;;;;;;;19.33;17.83;;;5.50;25.00;;;;;;4949889;29;20474;-46
2023/03/06 04:50:15;;;;;;;29.93;27.20;;;5.50;25.00;;;;;;4950025;29;20266;-43
2023/03/06 04:52:41;;;;;;;48.87;44.63;;;5.60;25.10;;;;;;4950265;29;20419;-48
2023/03/06 04:55:08;;;;;;;21.60;19.90;;;5.60;25.00;;;;;;4950374;29;20519;-48
2023/03/06 04:57:35;;;;;;;15.40;14.37;;;5.70;24.60;;;;;;4950223;29;20523;-43
2023/03/06 05:00:03;;;;;;;18.60;17.20;;;5.60;24.40;;;;;;4950994;29;20423;-45
2023/03/06 05:02:29;;;;;;;19.13;17.73;;;5.70;24.30;;;;;;4949924;29;21105;-45
2023/03/06 05:04:54;;;;;;;22.60;20.90;;;5.80;24.20;;;;;;4950357;29;20587;-47
2023/03/06 05:07:20;;;;;;;23.90;21.90;;;5.80;24.10;;;;;;4950243;29;20206;-43
2023/03/06 05:09:45;;;;;;;66.33;59.63;;;5.80;24.30;;;;;;4950575;29;20640;-42
2023/03/06 05:12:11;;;;;;;36.33;33.00;;;5.70;24.40;;;;;;4950413;28;20186;-42
2023/03/06 05:14:37;;;;;;;22.10;20.33;;;5.70;24.40;;;;;;4949928;28;20179;-41
2023/03/06 05:17:02;;;;;;;17.20;15.90;;;5.70;24.30;;;;;;4949970;29;20573;-42
2023/03/06 05:19:29;;;;;;;16.63;15.43;;;5.60;24.30;;;;;;4951901;28;20610;-45
2023/03/06 05:21:54;;;;;;;16.70;15.50;;;5.70;24.30;;;;;;4950947;29;20548;-42
2023/03/06 05:24:20;;;;;;;18.00;16.80;;;5.60;24.20;;;;;;4951435;28;20459;-45
2023/03/06 05:26:46;;;;;;;26.90;24.57;;;5.60;24.60;;;;;;4950398;29;20171;-42
2023/03/06 05:29:12;;;;;;;23.50;21.60;;;5.50;24.70;;;;;;4950822;28;20205;-42
2023/03/06 05:31:37;;;;;;;23.83;21.93;;;5.50;24.60;;;;;;4950547;29;20348;-48
2023/03/06 05:34:03;;;;;;;19.03;17.63;;;5.50;24.70;;;;;;4951141;29;20179;-42
2023/03/06 05:36:29;;;;;;;17.50;16.20;;;5.60;24.70;;;;;;4950730;29;20183;-47
2023/03/06 05:38:54;;;;;;;17.47;16.27;;;5.50;24.60;;;;;;4950609;29;20187;-48
2023/03/06 05:41:20;;;;;;;17.57;16.30;;;5.50;24.50;;;;;;4951032;29;20180;-42
2023/03/06 05:43:46;;;;;;;26.10;23.67;;;5.50;24.60;;;;;;4950490;29;20543;-41
2023/03/06 05:46:11;;;;;;;22.67;20.93;;;5.50;24.60;;;;;;4950442;29;20179;-41
2023/03/06 05:48:37;;;;;;;20.23;18.63;;;5.50;24.60;;;;;;4950453;29;20560;-42
2023/03/06 05:51:04;;;;;;;19.00;17.50;;;5.50;24.40;;;;;;4950617;29;20265;-45
2023/03/06 05:53:31;;;;;;;18.37;16.90;;;5.50;24.50;;;;;;4945278;29;20191;-43
2023/03/06 05:56:05;;;;;;;19.50;17.80;;;5.60;24.10;;;;;;4941465;29;20904;-54
2023/03/06 05:58:32;;;;;;;20.57;18.97;;;5.50;24.30;;;;;;4957659;28;20786;-56
2023/03/06 06:00:58;;;;;;;19.50;18.00;;;5.40;24.60;;;;;;4955034;28;20412;-52
2023/03/06 06:03:24;;;;;;;18.43;17.00;;;5.40;24.50;;;;;;4947736;29;20558;-56
2023/03/06 06:05:50;;;;;;;16.80;15.60;;;5.50;24.30;;;;;;4949391;29;20473;-53
2023/03/06 06:08:16;;;;;;;15.90;14.73;;;5.50;24.40;;;;;;4948990;29;20204;-57
2023/03/06 06:10:42;;;;;;;16.40;15.30;;;5.40;24.70;;;;;;4949155;29;20420;-55
2023/03/06 06:13:08;;;;;;;18.40;16.87;;;5.40;24.40;;;;;;4947722;29;20419;-52
2023/03/06 06:15:33;;;;;;;17.40;16.20;;;5.40;24.70;;;;;;4947789;29;20579;-55
2023/03/06 06:17:59;;;;;;;17.33;16.07;;;5.60;23.90;;;;;;4947828;29;20186;-55
2023/03/06 06:20:26;;;;;;;16.70;15.40;;;5.50;24.40;;;;;;4948966;29;20172;-54
2023/03/06 06:22:52;;;;;;;18.23;16.90;;;5.70;23.80;;;;;;4956311;28;20175;-56
2023/03/06 06:25:17;;;;;;;15.40;14.30;;;5.60;24.10;;;;;;4962755;28;20525;-44
2023/03/06 06:27:43;;;;;;;17.00;15.80;;;5.50;24.10;;;;;;4959836;28;20190;-42
2023/03/06 06:30:11;;;;;;;17.80;16.50;;;5.60;24.20;;;;;;4961623;28;20828;-43
2023/03/06 06:32:37;;;;;;;17.03;15.73;;;5.60;24.20;;;;;;4944600;29;20176;-44
2023/03/06 06:35:03;;;;;;;16.17;14.97;;;5.50;24.00;;;;;;4952096;29;20514;-44
2023/03/06 06:37:30;;;;;;;17.43;16.10;;;5.50;24.60;;;;;;4952417;29;20426;-45
2023/03/06 06:39:56;;;;;;;18.00;16.80;;;5.40;24.30;;;;;;4952620;29;20455;-45
2023/03/06 06:42:21;;;;;;;16.50;15.30;;;5.50;24.50;;;;;;4951625;29;20424;-54
2023/03/06 06:44:47;;;;;;;17.80;16.43;;;5.60;24.40;;;;;;4952034;29;20207;-55
2023/03/06 06:47:13;;;;;;;17.50;16.30;;;5.60;24.40;;;;;;4951591;29;20180;-54
2023/03/06 06:49:38;;;;;;;20.57;18.87;;;5.70;24.40;;;;;;4952236;29;20176;-54
2023/03/06 06:52:05;;;;;;;40.73;36.40;;;5.80;24.00;;;;;;4960883;28;20179;-56
2023/03/06 06:54:33;;;;;;;18.33;16.77;;;5.80;24.20;;;;;;4961099;28;20540;-56
2023/03/06 06:56:59;;;;;;;18.43;17.07;;;5.70;24.00;;;;;;4961566;28;20968;-54
2023/03/06 06:59:24;;;;;;;17.53;16.23;;;5.60;24.50;;;;;;4958281;28;20415;-52
2023/03/06 07:01:51;;;;;;;17.50;15.90;;;5.60;24.50;;;;;;4945294;29;20574;-55
2023/03/06 07:04:17;;;;;;;17.13;15.83;;;5.50;24.50;;;;;;4949558;29;20343;-55
2023/03/06 07:06:43;;;;;;;18.23;15.77;;;5.70;24.30;;;;;;4950105;29;20875;-58
2023/03/06 07:09:10;;;;;;;18.13;16.83;;;5.60;24.10;;;;;;4949164;29;20514;-52
2023/03/06 07:11:37;;;;;;;16.70;15.47;;;5.50;24.50;;;;;;4934195;29;20779;-51
2023/03/06 07:14:02;;;;;;;17.13;15.80;;;5.60;24.60;;;;;;4975524;28;20465;-54
2023/03/06 07:16:28;;;;;;;17.63;16.23;;;5.60;24.60;;;;;;4974520;28;20450;-56
2023/03/06 07:18:54;;;;;;;17.30;16.00;;;5.40;24.70;;;;;;4974614;28;20178;-43
2023/03/06 07:21:19;;;;;;;16.50;15.30;;;5.50;25.00;;;;;;4974671;28;20182;-41
2023/03/06 07:23:45;;;;;;;19.23;17.67;;;5.50;24.70;;;;;;4974639;28;20203;-46
2023/03/06 07:26:10;;;;;;;17.37;16.23;;;5.80;24.60;;;;;;4974635;28;20171;-41
2023/03/06 07:28:36;;;;;;;16.87;15.57;;;5.90;23.70;;;;;;4974865;28;20178;-50
2023/03/06 07:31:06;;;;;;;17.40;15.77;;;5.80;23.80;;;;;;4974450;28;20187;-56
2023/03/06 07:33:31;;;;;;;18.40;17.10;;;5.80;23.90;;;;;;4974155;28;20202;-56
2023/03/06 07:35:57;;;;;;;18.87;17.47;;;5.80;23.80;;;;;;4974122;28;20418;-56
2023/03/06 07:38:23;;;;;;;19.30;17.73;;;5.80;24.10;;;;;;4973836;28;20189;-56
2023/03/06 07:40:50;;;;;;;20.67;19.17;;;5.90;24.00;;;;;;4960373;28;20566;-55
2023/03/06 07:43:16;;;;;;;16.40;15.20;;;5.90;23.90;;;;;;4953939;28;20598;-56
2023/03/06 07:45:41;;;;;;;17.80;16.50;;;5.50;24.40;;;;;;4952263;29;20451;-55
2023/03/06 07:48:07;;;;;;;17.70;16.50;;;5.40;24.90;;;;;;4954175;29;20226;-55
2023/03/06 07:50:33;;;;;;;17.17;15.90;;;5.40;25.10;;;;;;4954067;28;20189;-56
2023/03/06 07:52:59;;;;;;;16.73;15.53;;;5.40;25.30;;;;;;4967562;28;20180;-57
2023/03/06 07:55:25;;;;;;;16.93;15.63;;;5.40;25.10;;;;;;4953773;28;20788;-55
2023/03/06 07:57:50;;;;;;;18.20;16.80;;;5.40;25.10;;;;;;4965053;28;20188;-54
2023/03/06 08:00:17;;;;;;;18.33;16.60;;;5.50;25.10;;;;;;4970265;28;20275;-54
2023/03/06 08:02:43;;;;;;;16.90;15.70;;;5.60;25.10;;;;;;4953791;28;20660;-54
2023/03/06 08:05:12;;;;;;;18.50;17.20;;;5.70;24.70;;;;;;4954153;29;20505;-53
2023/03/06 08:07:38;;;;;;;16.30;14.90;;;5.90;24.50;;;;;;4953898;28;20218;-52
2023/03/06 08:10:04;;;;;;;17.03;15.60;;;5.80;24.10;;;;;;4954300;29;20510;-56
2023/03/06 08:12:30;;;;;;;17.40;15.80;;;5.70;24.50;;;;;;4968501;28;20180;-57
2023/03/06 08:14:55;;;;;;;20.30;18.60;;;5.80;24.70;;;;;;4968206;28;20999;-56
2023/03/06 08:17:21;;;;;;;19.27;17.67;;;6.00;24.60;;;;;;4954240;29;20193;-58
2023/03/06 08:19:46;;;;;;;17.20;16.00;;;5.80;24.00;;;;;;4952344;28;20180;-56
2023/03/06 08:22:13;;;;;;;15.17;14.07;;;6.00;24.20;;;;;;4953693;28;20183;-54
2023/03/06 08:24:39;;;;;;;17.27;15.90;;;5.90;24.10;;;;;;4953903;29;20218;-58
2023/03/06 08:27:05;;;;;;;16.07;14.90;;;6.20;23.60;;;;;;4953830;28;20447;-42
2023/03/06 08:29:30;;;;;;;15.87;14.77;;;6.10;23.70;;;;;;4969593;28;20419;-42
2023/03/06 08:31:56;;;;;;;17.17;15.83;;;6.00;24.00;;;;;;4953937;29;20433;-56
2023/03/06 08:34:25;;;;;;;15.70;14.50;;;6.10;24.00;;;;;;4953917;29;20195;-55
2023/03/06 08:36:51;;;;;;;15.03;13.80;;;6.20;23.70;;;;;;4954009;28;20423;-57
2023/03/06 08:39:17;;;;;;;17.13;15.83;;;6.20;23.70;;;;;;4954925;28;20434;-56
2023/03/06 08:41:43;;;;;;;18.97;17.33;;;6.40;23.90;;;;;;4953974;29;20522;-55
2023/03/06 08:44:09;;;;;;;21.70;20.00;;;6.60;23.00;;;;;;4954785;28;20211;-53
2023/03/06 08:46:35;;;;;;;23.30;21.20;;;6.70;22.50;;;;;;4953568;28;20419;-54
2023/03/06 08:49:01;;;;;;;17.80;16.50;;;6.40;23.10;;;;;;4953860;28;20454;-55
2023/03/06 08:51:27;;;;;;;18.27;16.87;;;6.20;23.20;;;;;;4952627;29;20462;-54
2023/03/06 08:53:54;;;;;;;17.10;15.90;;;6.20;23.40;;;;;;4953031;29;20695;-56
2023/03/06 08:56:26;;;;;;;16.73;15.43;;;6.50;22.90;;;;;;4953443;28;20438;-55
2023/03/06 08:58:53;;;;;;;15.50;14.43;;;6.70;22.80;;;;;;4954887;28;20441;-56
2023/03/06 09:01:20;;;;;;;15.90;14.73;;;6.30;23.00;;;;;;4953178;29;20423;-56
2023/03/06 09:03:46;;;;;;;16.53;14.87;;;6.20;23.70;;;;;;4969398;28;20467;-56
2023/03/06 09:06:12;;;;;;;17.33;15.90;;;6.00;24.10;;;;;;4953550;29;20824;-47
2023/03/06 09:08:41;;;;;;;16.03;14.77;;;6.00;24.00;;;;;;4953430;29;20439;-41
2023/03/06 09:11:08;;;;;;;14.37;13.27;;;6.10;24.00;;;;;;4952032;28;20480;-41
2023/03/06 09:13:34;;;;;;;15.03;14.03;;;5.90;24.30;;;;;;4952805;29;20439;-43
2023/03/06 09:16:00;;;;;;;14.47;13.53;;;5.90;24.10;;;;;;4952499;29;20833;-44
2023/03/06 09:18:28;;;;;;;14.60;13.10;;;5.90;24.10;;;;;;4951088;28;20470;-46
2023/03/06 09:20:53;;;;;;;14.40;13.33;;;6.00;23.90;;;;;;4950967;28;20195;-45
2023/03/06 09:23:19;;;;;;;13.73;12.83;;;6.00;24.10;;;;;;4951148;29;20431;-45
2023/03/06 09:25:50;;;;;;;16.10;14.90;;;6.00;24.00;;;;;;4951351;29;20206;-45
2023/03/06 09:28:16;;;;;;;16.50;15.10;;;5.90;24.20;;;;;;4951384;29;20545;-49
2023/03/06 09:30:42;;;;;;;15.80;14.70;;;6.00;24.50;;;;;;4967483;28;20470;-50
2023/03/06 09:33:08;;;;;;;14.00;13.10;;;6.00;24.40;;;;;;4952448;29;20463;-48
2023/03/06 09:35:33;;;;;;;15.47;14.40;;;5.90;24.80;;;;;;4952745;29;20183;-47
2023/03/06 09:37:59;;;;;;;13.53;12.63;;;6.00;24.70;;;;;;4952644;29;20186;-45
2023/03/06 09:40:55;;;;;;;15.20;14.10;;;6.00;24.40;;;;;;4952442;28;20191;-47
2023/03/06 09:43:31;;;;;;;13.63;12.73;;;5.90;24.40;;;;;;4968024;28;20237;-46
2023/03/06 09:45:58;;;;;;;13.87;13.00;;;6.00;24.50;;;;;;4953009;29;20434;-48
2023/03/06 09:48:57;;;;;;;16.43;15.30;;;6.00;24.90;;;;;;4951978;29;20832;-56
2023/03/06 09:51:33;;;;;;;16.63;15.20;;;6.40;24.00;;;;;;4931876;29;20439;-56
2023/03/06 09:54:12;;;;;;;14.03;13.13;;;6.50;23.70;;;;;;4965196;28;20578;-54
2023/03/06 09:56:42;;;;;;;15.67;14.47;;;6.30;24.10;;;;;;4961147;28;20958;-58
2023/03/06 09:59:16;;;;;;;15.07;14.07;;;6.30;24.00;;;;;;4952293;29;20812;-58
2023/03/06 10:01:53;;;;;;;15.20;13.90;;;6.10;24.80;;;;;;4945302;28;20429;-57
2023/03/06 10:04:39;;;;;;;19.00;17.60;;;6.00;25.00;;;;;;4951611;29;20467;-58
2023/03/06 10:07:35;;;;;;;16.30;15.20;;;6.00;25.10;;;;;;4951981;29;20471;-54
2023/03/06 10:10:04;;;;;;;14.57;13.23;;;6.20;24.90;;;;;;4949329;29;20431;-58
2023/03/06 10:13:02;;;;;;;16.40;15.00;;;6.30;24.70;;;;;;4953031;28;20537;-58
2023/03/06 10:15:32;;;;;;;17.27;16.07;;;6.40;24.70;;;;;;4942921;29;20478;-58
2023/03/06 10:17:58;;;;;;;15.37;14.27;;;6.60;24.00;;;;;;4968328;28;20418;-59
2023/03/06 10:20:32;;;;;;;13.03;12.20;;;6.70;23.50;;;;;;4952345;29;20416;-56
2023/03/06 10:23:12;;;;;;;13.60;12.60;;;6.60;24.40;;;;;;4948513;29;20709;-58
2023/03/06 10:25:53;;;;;;;13.57;12.57;;;6.40;24.10;;;;;;4964039;28;20419;-56
2023/03/06 10:28:27;;;;;;;13.57;12.77;;;6.30;25.00;;;;;;4952213;29;20436;-58
2023/03/06 10:30:58;;;;;;;13.13;12.33;;;6.20;24.80;;;;;;4968153;28;20422;-57
2023/03/06 10:33:41;;;;;;;13.70;12.70;;;6.20;24.40;;;;;;4952155;29;20423;-58
2023/03/06 10:36:14;;;;;;;16.07;14.87;;;6.30;24.50;;;;;;4964908;28;20438;-57
2023/03/06 10:38:40;;;;;;;16.97;15.67;;;6.30;24.40;;;;;;4949236;29;20497;-56
2023/03/06 10:41:09;;;;;;;15.00;13.70;;;6.30;24.20;;;;;;4952098;29;20911;-58
2023/03/06 10:43:55;;;;;;;15.97;14.87;;;6.70;23.60;;;;;;4964261;28;20473;-57
2023/03/06 10:46:49;;;;;;;15.00;13.97;;;6.90;22.70;;;;;;4950356;29;20427;-57
2023/03/06 10:49:29;;;;;;;17.20;15.90;;;7.30;22.00;;;;;;4948388;29;20757;-57
2023/03/06 10:52:06;;;;;;;15.50;14.40;;;7.20;21.20;;;;;;4967979;28;20543;-59
2023/03/06 10:54:35;;;;;;;14.53;13.47;;;7.00;22.00;;;;;;4953339;29;20445;-48
2023/03/06 10:57:28;;;;;;;19.47;18.00;;;7.10;21.40;;;;;;4952094;29;20431;-48
2023/03/06 11:00:07;;;;;;;17.40;16.07;;;6.80;21.90;;;;;;4945871;28;20443;-44
2023/03/06 11:02:37;;;;;;;15.23;14.13;;;6.80;21.90;;;;;;4951664;28;20943;-45
2023/03/06 11:05:04;;;;;;;13.37;12.33;;;6.70;22.20;;;;;;4951849;28;20875;-45
2023/03/06 11:07:32;;;;;;;14.00;13.00;;;6.50;22.90;;;;;;4951662;28;20473;-47
2023/03/06 11:09:58;;;;;;;15.77;14.67;;;6.30;23.20;;;;;;4951858;29;20414;-46
2023/03/06 11:12:33;;;;;;;18.67;17.07;;;6.40;23.40;;;;;;4970262;28;21001;-49
2023/03/06 11:15:21;;;;;;;15.40;14.30;;;6.50;23.10;;;;;;4955349;29;20221;-50
2023/03/06 11:18:08;;;;;;;15.87;14.67;;;6.50;23.00;;;;;;4949870;29;20434;-50
2023/03/06 11:20:45;;;;;;;15.10;14.00;;;6.70;22.50;;;;;;4970279;28;20430;-46
2023/03/06 11:23:20;;;;;;;13.43;12.37;;;6.80;22.20;;;;;;4954913;28;20422;-47
2023/03/06 11:26:01;;;;;;;14.10;13.20;;;6.70;22.40;;;;;;4955088;28;20423;-46
2023/03/06 11:28:52;;;;;;;12.50;11.70;;;6.60;22.50;;;;;;4954763;29;20421;-47
2023/03/06 11:31:22;;;;;;;14.00;13.00;;;6.80;21.90;;;;;;4948742;29;20427;-45
2023/03/06 11:33:57;;;;;;;13.40;12.30;;;6.70;22.20;;;;;;4970875;28;20426;-48
2023/03/06 11:36:37;;;;;;;14.23;13.33;;;6.80;21.90;;;;;;4950057;29;20440;-49
2023/03/06 11:39:32;;;;;;;14.17;13.17;;;6.70;21.80;;;;;;4955980;29;20411;-51
2023/03/06 11:42:04;;;;;;;14.10;12.90;;;6.60;21.80;;;;;;4954250;29;20415;-42
2023/03/06 11:44:48;;;;;;;13.50;12.57;;;6.60;21.80;;;;;;4954604;29;20517;-46
2023/03/06 11:47:16;;;;;;;14.00;13.10;;;6.70;21.90;;;;;;4954488;29;20908;-45
2023/03/06 11:50:08;;;;;;;13.37;12.47;;;7.00;22.00;;;;;;4956130;28;20553;-45
2023/03/06 11:53:04;;;;;;;14.87;13.77;;;7.00;21.40;;;;;;4946274;28;20490;-49
2023/03/06 11:55:45;;;;;;;14.00;12.87;;;6.90;22.00;;;;;;4939921;29;20472;-58
2023/03/06 11:58:26;;;;;;;13.97;12.97;;;6.70;21.80;;;;;;4970581;28;20655;-58
2023/03/06 12:01:21;;;;;;;13.60;12.70;;;6.70;21.90;;;;;;4970723;28;20419;-59
2023/03/06 12:04:10;;;;;;;14.10;13.20;;;6.70;21.80;;;;;;4954738;29;20874;-56
2023/03/06 12:07:03;;;;;;;14.40;13.27;;;6.70;21.40;;;;;;4969190;28;20453;-57
2023/03/06 12:09:47;;;;;;;14.40;13.23;;;6.70;21.00;;;;;;4954253;29;20439;-58
2023/03/06 12:12:19;;;;;;;16.43;15.27;;;6.90;21.60;;;;;;4954081;29;20419;-59
2023/03/06 12:14:55;;;;;;;16.53;15.00;;;7.00;20.40;;;;;;4955564;28;20411;-59
2023/03/06 12:17:45;;;;;;;18.50;17.00;;;7.00;20.50;;;;;;4970355;28;20612;-59
2023/03/06 12:20:52;;;;;;;20.00;18.20;;;7.00;21.00;;;;;;4954392;29;20434;-56
2023/03/06 12:23:31;;;;;;;14.30;13.20;;;7.20;20.50;;;;;;4967813;28;20438;-58
2023/03/06 12:26:13;;;;;;;13.87;12.87;;;7.20;20.00;;;;;;4970231;28;20415;-58
2023/03/06 12:28:50;;;;;;;14.30;13.13;;;7.20;19.40;;;;;;4947475;29;20474;-58
2023/03/06 12:31:40;;;;;;;13.60;12.70;;;7.10;19.50;;;;;;4967060;28;20852;-56
2023/03/06 12:34:24;;;;;;;13.17;12.10;;;7.10;19.60;;;;;;4969861;28;20805;-58
2023/03/06 12:37:02;;;;;;;14.67;13.67;;;7.20;19.50;;;;;;4948147;29;20419;-58
2023/03/06 12:39:46;;;;;;;14.33;13.23;;;7.30;19.30;;;;;;4952184;29;20423;-56
2023/03/06 12:42:30;;;;;;;15.20;14.00;;;7.70;18.70;;;;;;4969158;28;20781;-59
2023/03/06 12:45:02;;;;;;;14.37;13.37;;;7.80;18.30;;;;;;4969506;28;20462;-59
2023/03/06 12:47:33;;;;;;;14.00;13.00;;;7.80;18.60;;;;;;4968842;28;20466;-55